createdAt,value
2022-08-05T00:00:46.307Z,27.05
2022-08-05T00:01:49.152Z,27.02
2022-08-05T00:02:38.885Z,26.99
2022-08-05T00:03:39.328Z,26.99
2022-08-05T00:04:37.900Z,26.93
2022-08-05T00:06:05.410Z,26.97
2022-08-05T00:06:38.783Z,26.90
2022-08-05T00:08:00.756Z,26.89
2022-08-05T00:08:38.864Z,26.83
2022-08-05T00:09:37.789Z,26.93
2022-08-05T00:10:37.742Z,26.78
2022-08-05T00:11:49.544Z,26.81
2022-08-05T00:12:55.787Z,26.78
2022-08-05T00:13:40.048Z,26.81
2022-08-05T00:14:37.696Z,26.80
2022-08-05T00:15:57.603Z,26.85
2022-08-05T00:16:52.622Z,26.81
2022-08-05T00:17:38.662Z,26.80
2022-08-05T00:18:37.992Z,26.68
2022-08-05T00:19:44.050Z,26.83
2022-08-05T00:20:38.629Z,26.80
2022-08-05T00:21:37.619Z,26.80
2022-08-05T00:22:37.612Z,26.83
2022-08-05T00:23:45.745Z,26.75
2022-08-05T00:24:38.600Z,26.78
2022-08-05T00:25:46.120Z,26.75
2022-08-05T00:26:38.565Z,26.70
2022-08-05T00:27:37.709Z,26.75
2022-08-05T00:28:38.544Z,26.73
2022-08-05T00:29:38.402Z,26.66
2022-08-05T00:30:37.521Z,26.68
2022-08-05T00:31:54.265Z,26.62
2022-08-05T00:32:38.501Z,26.66
2022-08-05T00:34:43.382Z,26.65
2022-08-05T00:34:53.259Z,26.65
2022-08-05T00:35:38.465Z,26.66
2022-08-05T00:37:12.909Z,26.58
2022-08-05T00:37:53.221Z,26.62
2022-08-05T00:38:38.435Z,26.53
2022-08-05T00:39:44.282Z,26.55
2022-08-05T00:40:38.426Z,26.52
2022-08-05T00:41:55.093Z,26.62
2022-08-05T00:42:38.392Z,26.52
2022-08-05T00:43:41.750Z,26.51
2022-08-05T00:44:38.633Z,26.52
2022-08-05T00:45:43.168Z,26.45
2022-08-05T00:46:43.667Z,26.52
2022-08-05T00:47:56.494Z,26.41
2022-08-05T00:48:50.257Z,26.38
2022-08-05T00:49:44.373Z,26.31
2022-08-05T00:50:38.324Z,26.33
2022-08-05T00:51:51.853Z,26.31
2022-08-05T00:52:39.140Z,26.40
2022-08-05T00:53:45.465Z,26.38
2022-08-05T00:54:38.264Z,26.37
2022-08-05T00:55:43.513Z,26.29
2022-08-05T00:56:38.236Z,26.28
2022-08-05T00:57:58.269Z,26.28
2022-08-05T00:58:38.232Z,26.34
2022-08-05T00:59:44.324Z,26.21
2022-08-05T01:00:38.261Z,26.26
2022-08-05T01:01:42.574Z,26.22
2022-08-05T01:02:38.177Z,26.18
2022-08-05T01:03:37.182Z,26.16
2022-08-05T01:04:37.154Z,26.18
2022-08-05T01:05:38.329Z,26.15
2022-08-05T01:06:37.131Z,26.10
2022-08-05T01:07:37.116Z,26.15
2022-08-05T01:08:43.418Z,26.05
2022-08-05T01:09:38.096Z,26.07
2022-08-05T01:10:37.083Z,26.02
2022-08-05T01:11:37.685Z,26.05
2022-08-05T01:12:37.064Z,26.00
2022-08-05T01:13:58.403Z,25.98
2022-08-05T01:14:38.040Z,25.98
2022-08-05T01:15:37.046Z,25.93
2022-08-05T01:16:38.020Z,25.90
2022-08-05T01:17:40.317Z,25.91
2022-08-05T01:18:38.061Z,25.93
2022-08-05T01:20:01.160Z,25.90
2022-08-05T01:20:37.978Z,25.90
2022-08-05T01:21:37.808Z,25.85
2022-08-05T01:22:36.951Z,25.83
2022-08-05T01:23:36.942Z,25.87
2022-08-05T01:24:36.954Z,25.84
2022-08-05T01:25:40.690Z,25.85
2022-08-05T01:26:36.913Z,25.84
2022-08-05T01:27:40.974Z,25.77
2022-08-05T01:28:37.888Z,25.78
2022-08-05T01:29:36.895Z,25.87
2022-08-05T01:30:36.866Z,25.85
2022-08-05T01:31:42.538Z,25.80
2022-08-05T01:32:37.845Z,25.73
2022-08-05T01:33:36.874Z,25.75
2022-08-05T01:34:36.826Z,25.77
2022-08-05T01:35:52.010Z,25.70
2022-08-05T01:36:42.172Z,25.69
2022-08-05T01:37:37.787Z,25.66
2022-08-05T01:38:37.796Z,25.66
2022-08-05T01:39:46.548Z,25.66
2022-08-05T01:40:37.754Z,25.70
2022-08-05T01:41:37.606Z,25.63
2022-08-05T01:42:36.734Z,25.73
2022-08-05T01:43:36.755Z,25.68
2022-08-05T01:44:36.716Z,25.62
2022-08-05T01:45:43.061Z,25.68
2022-08-05T01:46:42.809Z,25.65
2022-08-05T01:47:39.468Z,25.58
2022-08-05T01:48:36.670Z,25.60
2022-08-05T01:50:00.048Z,25.60
2022-08-05T01:50:37.649Z,25.59
2022-08-05T01:51:36.638Z,25.59
2022-08-05T01:52:36.647Z,25.55
2022-08-05T01:53:54.849Z,25.58
2022-08-05T01:54:46.201Z,25.46
2022-08-05T01:55:37.587Z,25.44
2022-08-05T01:58:11.254Z,25.41
2022-08-05T01:58:12.657Z,25.46
2022-08-05T01:58:45.217Z,25.50
2022-08-05T01:59:37.562Z,25.47
2022-08-05T02:00:36.540Z,25.44
2022-08-05T02:01:39.971Z,25.43
2022-08-05T02:02:36.619Z,25.41
2022-08-05T02:03:37.501Z,25.43
2022-08-05T02:04:36.515Z,25.46
2022-08-05T02:05:36.669Z,25.40
2022-08-05T02:06:38.326Z,25.48
2022-08-05T02:07:36.523Z,25.47
2022-08-05T02:08:40.828Z,25.41
2022-08-05T02:09:37.489Z,25.32
2022-08-05T02:10:36.426Z,25.35
2022-08-05T02:11:41.996Z,25.36
2022-08-05T02:12:37.407Z,25.41
2022-08-05T02:13:53.152Z,25.32
2022-08-05T02:14:37.381Z,25.33
2022-08-05T02:15:36.387Z,25.32
2022-08-05T02:16:36.361Z,25.28
2022-08-05T02:18:28.495Z,25.29
2022-08-05T02:18:37.646Z,25.33
2022-08-05T02:19:36.327Z,25.33
2022-08-05T02:20:39.136Z,25.35
2022-08-05T02:21:43.236Z,25.28
2022-08-05T02:22:37.295Z,25.25
2022-08-05T02:23:36.285Z,25.21
2022-08-05T02:24:36.298Z,25.21
2022-08-05T02:25:49.839Z,25.22
2022-08-05T02:26:37.294Z,25.21
2022-08-05T02:27:58.378Z,25.26
2022-08-05T02:28:41.496Z,25.21
2022-08-05T02:29:59.408Z,25.16
2022-08-05T02:30:37.325Z,25.26
2022-08-05T02:31:37.196Z,25.21
2022-08-05T02:32:36.183Z,25.22
2022-08-05T02:33:38.395Z,25.13
2022-08-05T02:34:36.166Z,25.13
2022-08-05T02:35:38.155Z,25.13
2022-08-05T02:36:37.139Z,25.01
2022-08-05T02:37:36.299Z,25.06
2022-08-05T02:38:36.122Z,25.06
2022-08-05T02:39:36.171Z,25.06
2022-08-05T02:40:37.110Z,25.03
2022-08-05T02:41:58.274Z,25.01
2022-08-05T02:42:37.073Z,24.98
2022-08-05T02:43:36.061Z,25.06
2022-08-05T02:44:37.053Z,25.03
2022-08-05T02:45:52.366Z,24.99
2022-08-05T02:46:53.779Z,24.99
2022-08-05T02:47:58.698Z,24.98
2022-08-05T02:48:37.009Z,24.86
2022-08-05T02:49:37.699Z,24.86
2022-08-05T02:50:36.026Z,24.88
2022-08-05T02:52:03.067Z,24.92
2022-08-05T02:52:36.962Z,24.89
2022-08-05T02:53:39.528Z,24.92
2022-08-05T02:54:37.387Z,24.85
2022-08-05T02:55:54.454Z,24.80
2022-08-05T02:56:36.937Z,24.77
2022-08-05T02:58:11.266Z,24.78
2022-08-05T02:58:36.895Z,24.76
2022-08-05T02:59:50.176Z,24.73
2022-08-05T03:00:36.880Z,24.78
2022-08-05T03:01:35.880Z,24.74
2022-08-05T03:02:35.857Z,24.70
2022-08-05T03:04:02.044Z,24.66
2022-08-05T03:04:37.129Z,24.69
2022-08-05T03:06:54.362Z,24.65
2022-08-05T03:06:55.040Z,24.70
2022-08-05T03:07:59.392Z,24.68
2022-08-05T03:08:36.786Z,24.68
2022-08-05T03:09:38.165Z,24.63
2022-08-05T03:10:36.765Z,24.69
2022-08-05T03:11:55.277Z,24.55
2022-08-05T03:12:36.741Z,24.51
2022-08-05T03:13:51.987Z,24.55
2022-08-05T03:14:45.737Z,24.47
2022-08-05T03:15:36.709Z,24.43
2022-08-05T03:16:35.919Z,24.45
2022-08-05T03:17:41.683Z,24.38
2022-08-05T03:18:36.696Z,24.39
2022-08-05T03:19:36.663Z,24.38
2022-08-05T03:20:35.653Z,24.30
2022-08-05T03:21:41.701Z,24.35
2022-08-05T03:22:36.634Z,24.39
2022-08-05T03:23:35.641Z,24.38
2022-08-05T03:24:35.615Z,24.29
2022-08-05T03:26:04.339Z,24.23
2022-08-05T03:26:36.595Z,24.16
2022-08-05T03:27:57.608Z,24.17
2022-08-05T03:28:36.581Z,24.18
2022-08-05T03:29:45.880Z,24.24
2022-08-05T03:30:36.549Z,24.16
2022-08-05T03:31:56.000Z,24.21
2022-08-05T03:32:36.522Z,24.24
2022-08-05T03:33:51.473Z,24.24
2022-08-05T03:34:36.720Z,24.26
2022-08-05T03:35:41.510Z,24.26
2022-08-05T03:36:36.476Z,24.24
2022-08-05T03:37:45.778Z,24.32
2022-08-05T03:38:37.681Z,24.29
2022-08-05T03:39:57.689Z,24.28
2022-08-05T03:40:36.463Z,24.35
2022-08-05T03:41:38.647Z,24.29
2022-08-05T03:42:52.217Z,24.28
2022-08-05T03:44:08.729Z,24.33
2022-08-05T03:44:36.404Z,24.39
2022-08-05T03:45:58.238Z,24.35
2022-08-05T03:46:36.365Z,24.38
2022-08-05T03:47:41.194Z,24.32
2022-08-05T03:48:36.772Z,24.39
2022-08-05T03:49:51.813Z,24.39
2022-08-05T03:50:36.319Z,24.40
2022-08-05T03:52:38.007Z,24.40
2022-08-05T03:55:00.262Z,24.42
2022-08-05T03:55:51.303Z,24.40
2022-08-05T03:55:54.206Z,24.36
2022-08-05T03:56:05.628Z,24.48
2022-08-05T03:56:36.252Z,24.40
2022-08-05T03:57:42.294Z,24.45
2022-08-05T03:58:36.229Z,24.38
2022-08-05T03:59:47.354Z,24.50
2022-08-05T04:00:36.224Z,24.50
2022-08-05T04:01:35.290Z,24.50
2022-08-05T04:02:38.358Z,24.48
2022-08-05T04:03:35.176Z,24.45
2022-08-05T04:04:35.180Z,24.40
2022-08-05T04:05:35.157Z,24.48
2022-08-05T04:06:35.149Z,24.38
2022-08-05T04:07:35.128Z,24.45
2022-08-05T04:08:37.028Z,24.45
2022-08-05T04:09:36.689Z,24.39
2022-08-05T04:10:38.198Z,24.42
2022-08-05T04:11:50.571Z,24.42
2022-08-05T04:13:04.838Z,24.39
2022-08-05T04:14:04.712Z,24.45
2022-08-05T04:15:04.688Z,24.45
2022-08-05T04:16:04.995Z,24.51
2022-08-05T04:17:04.663Z,24.55
2022-08-05T04:18:07.014Z,24.58
2022-08-05T04:19:04.660Z,24.57
2022-08-05T04:20:05.629Z,24.54
2022-08-05T04:21:05.618Z,24.68
2022-08-05T04:22:09.301Z,24.70
2022-08-05T04:23:05.601Z,24.63
2022-08-05T04:24:06.430Z,24.68
2022-08-05T04:25:04.574Z,24.70
2022-08-05T04:26:04.677Z,24.78
2022-08-05T04:27:04.555Z,24.84
2022-08-05T04:28:12.831Z,24.84
2022-08-05T04:29:07.191Z,24.85
2022-08-05T04:30:04.713Z,24.81
2022-08-05T04:31:08.395Z,24.73
2022-08-05T04:32:05.496Z,24.69
2022-08-05T04:33:04.488Z,24.66
2022-08-05T04:34:18.674Z,24.70
2022-08-05T04:35:05.877Z,24.70
2022-08-05T04:36:16.063Z,24.77
2022-08-05T04:37:05.444Z,24.91
2022-08-05T04:38:06.763Z,24.89
2022-08-05T04:39:04.484Z,24.88
2022-08-05T04:40:04.415Z,24.93
2022-08-05T04:41:04.400Z,24.92
2022-08-05T04:42:04.391Z,25.01
2022-08-05T04:43:04.592Z,25.01
2022-08-05T04:44:08.820Z,25.10
2022-08-05T04:45:05.361Z,25.13
2022-08-05T04:46:04.372Z,25.18
2022-08-05T04:47:08.643Z,25.21
2022-08-05T04:48:04.325Z,25.25
2022-08-05T04:49:04.312Z,25.28
2022-08-05T04:50:10.981Z,25.36
2022-08-05T04:51:11.383Z,25.38
2022-08-05T04:52:05.286Z,25.36
2022-08-05T04:53:04.272Z,25.51
2022-08-05T04:54:04.258Z,25.53
2022-08-05T04:55:14.146Z,25.53
2022-08-05T04:56:33.124Z,25.58
2022-08-05T04:57:05.250Z,25.66
2022-08-05T04:58:04.214Z,25.69
2022-08-05T04:59:21.626Z,25.62
2022-08-05T05:00:05.202Z,25.44
2022-08-05T05:01:04.284Z,25.53
2022-08-05T05:02:34.996Z,25.51
2022-08-05T05:03:05.214Z,25.58
2022-08-05T05:04:04.702Z,25.68
2022-08-05T05:05:04.138Z,25.83
2022-08-05T05:06:39.292Z,25.87
2022-08-05T05:07:05.135Z,25.95
2022-08-05T05:08:04.108Z,26.05
2022-08-05T05:09:05.495Z,26.09
2022-08-05T05:10:04.090Z,26.13
2022-08-05T05:11:04.074Z,26.16
2022-08-05T05:12:04.109Z,26.21
2022-08-05T05:13:04.666Z,26.06
2022-08-05T05:14:04.045Z,25.93
2022-08-05T05:15:04.124Z,25.95
2022-08-05T05:16:07.047Z,25.90
2022-08-05T05:17:07.586Z,25.88
2022-08-05T05:18:04.999Z,25.73
2022-08-05T05:19:18.577Z,25.81
2022-08-05T05:20:04.975Z,25.75
2022-08-05T05:21:04.348Z,25.85
2022-08-05T05:22:24.515Z,25.90
2022-08-05T05:23:08.380Z,25.88
2022-08-05T05:24:09.076Z,26.03
2022-08-05T05:25:17.038Z,26.10
2022-08-05T05:26:04.914Z,26.21
2022-08-05T05:27:03.900Z,26.16
2022-08-05T05:28:03.909Z,26.21
2022-08-05T05:29:10.137Z,26.10
2022-08-05T05:30:05.395Z,26.18
2022-08-05T05:31:05.760Z,26.13
2022-08-05T05:32:04.846Z,26.16
2022-08-05T05:33:16.170Z,26.31
2022-08-05T05:34:04.832Z,26.37
2022-08-05T05:35:03.814Z,26.34
2022-08-05T05:36:03.810Z,26.31
2022-08-05T05:37:03.806Z,26.34
2022-08-05T05:38:03.926Z,26.53
2022-08-05T05:39:04.379Z,26.59
2022-08-05T05:40:03.762Z,26.62
2022-08-05T05:41:03.754Z,26.55
2022-08-05T05:42:03.787Z,26.62
2022-08-05T05:43:03.746Z,26.71
2022-08-05T05:44:03.719Z,26.78
2022-08-05T05:45:04.711Z,26.74
2022-08-05T05:46:03.697Z,26.81
2022-08-05T05:47:04.166Z,26.78
2022-08-05T05:48:07.196Z,26.74
2022-08-05T05:49:06.428Z,26.81
2022-08-05T05:50:04.683Z,26.84
2022-08-05T05:51:15.026Z,26.85
2022-08-05T05:52:07.196Z,26.85
2022-08-05T05:53:21.123Z,26.84
2022-08-05T05:54:04.610Z,26.89
2022-08-05T05:55:07.331Z,26.83
2022-08-05T05:56:03.597Z,26.83
2022-08-05T05:57:03.759Z,26.93
2022-08-05T05:58:04.582Z,26.90
2022-08-05T05:59:05.570Z,26.99
2022-08-05T06:00:03.546Z,27.03
2022-08-05T06:01:12.725Z,27.00
2022-08-05T06:02:04.528Z,26.99
2022-08-05T06:03:03.532Z,26.99
2022-08-05T06:04:04.601Z,26.90
2022-08-05T06:05:03.652Z,26.97
2022-08-05T06:06:04.482Z,26.92
2022-08-05T06:07:03.471Z,26.85
2022-08-05T06:08:03.945Z,26.88
2022-08-05T06:09:04.095Z,26.85
2022-08-05T06:10:08.310Z,26.85
2022-08-05T06:11:04.427Z,26.75
2022-08-05T06:12:03.421Z,26.78
2022-08-05T06:13:03.411Z,26.70
2022-08-05T06:14:03.477Z,26.74
2022-08-05T06:15:03.388Z,26.71
2022-08-05T06:16:28.927Z,26.75
2022-08-05T06:17:22.623Z,26.88
2022-08-05T06:18:04.438Z,26.95
2022-08-05T06:19:06.016Z,27.05
2022-08-05T06:20:03.334Z,27.14
2022-08-05T06:21:03.323Z,27.21
2022-08-05T06:22:03.384Z,27.27
2022-08-05T06:23:04.015Z,27.26
2022-08-05T06:24:03.306Z,27.32
2022-08-05T06:25:25.305Z,27.29
2022-08-05T06:26:21.287Z,27.36
2022-08-05T06:27:04.343Z,27.37
2022-08-05T06:28:10.718Z,27.21
2022-08-05T06:29:23.739Z,27.15
2022-08-05T06:30:17.815Z,27.25
2022-08-05T06:31:11.317Z,27.27
2022-08-05T06:32:04.205Z,27.37
2022-08-05T06:33:03.209Z,27.44
2022-08-05T06:34:07.775Z,27.52
2022-08-05T06:35:06.009Z,27.70
2022-08-05T06:36:10.124Z,27.64
2022-08-05T06:37:04.158Z,27.55
2022-08-05T06:38:11.119Z,27.54
2022-08-05T06:39:04.174Z,27.47
2022-08-05T06:40:03.116Z,27.54
2022-08-05T06:41:03.104Z,27.54
2022-08-05T06:42:04.034Z,27.83
2022-08-05T06:43:03.087Z,28.15
2022-08-05T06:44:03.196Z,28.47
2022-08-05T06:45:06.480Z,28.79
2022-08-05T06:46:06.851Z,29.10
2022-08-05T06:47:03.053Z,29.42
2022-08-05T06:48:37.182Z,29.78
2022-08-05T06:49:05.888Z,30.08
2022-08-05T06:50:04.972Z,30.23
2022-08-05T06:51:03.011Z,30.65
2022-08-05T06:52:03.987Z,31.25
2022-08-05T06:53:04.070Z,31.84
2022-08-05T06:54:03.986Z,32.12
2022-08-05T06:55:02.958Z,32.59
2022-08-05T06:56:02.964Z,32.82
2022-08-05T06:58:03.422Z,33.11
2022-08-05T06:58:19.892Z,33.14
2022-08-05T06:59:03.924Z,33.08
2022-08-05T07:00:03.901Z,32.74
2022-08-05T07:01:03.198Z,32.46
2022-08-05T07:02:02.883Z,32.55
2022-08-05T07:03:02.865Z,32.36
2022-08-05T07:04:03.137Z,32.22
2022-08-05T07:05:02.950Z,32.21
2022-08-05T07:06:06.212Z,32.08
2022-08-05T07:07:06.268Z,32.08
2022-08-05T07:08:02.820Z,31.74
2022-08-05T07:09:04.271Z,31.51
2022-08-05T07:10:03.585Z,31.43
2022-08-05T07:11:02.781Z,31.34
2022-08-05T07:12:02.793Z,31.18
2022-08-05T07:13:02.785Z,31.07
2022-08-05T07:14:02.756Z,31.10
2022-08-05T07:15:02.743Z,31.03
2022-08-05T07:16:04.693Z,31.05
2022-08-05T07:17:58.596Z,31.29
2022-08-05T07:18:08.903Z,31.28
2022-08-05T07:19:03.697Z,31.20
2022-08-05T07:20:32.995Z,31.27
2022-08-05T07:21:05.488Z,31.12
2022-08-05T07:22:02.831Z,31.25
2022-08-05T07:23:02.657Z,31.07
2022-08-05T07:24:02.647Z,31.47
2022-08-05T07:25:21.805Z,31.47
2022-08-05T07:26:03.779Z,31.47
2022-08-05T07:27:02.862Z,31.69
2022-08-05T07:28:05.876Z,31.87
2022-08-05T07:29:03.591Z,31.93
2022-08-05T07:30:23.806Z,31.94
2022-08-05T07:31:03.568Z,32.04
2022-08-05T07:32:03.964Z,32.08
2022-08-05T07:33:05.013Z,32.09
2022-08-05T07:34:02.547Z,31.96
2022-08-05T07:36:05.385Z,32.07
2022-08-05T07:36:19.993Z,32.19
2022-08-05T07:37:03.526Z,32.27
2022-08-05T07:38:02.500Z,32.12
2022-08-05T07:39:02.578Z,31.94
2022-08-05T07:40:26.305Z,31.87
2022-08-05T07:42:06.975Z,31.66
2022-08-05T07:42:13.396Z,31.81
2022-08-05T07:43:13.814Z,31.81
2022-08-05T07:44:03.435Z,31.66
2022-08-05T07:45:02.434Z,31.55
2022-08-05T07:46:02.416Z,31.36
2022-08-05T07:47:06.199Z,31.33
2022-08-05T07:48:03.394Z,31.31
2022-08-05T07:49:05.799Z,30.90
2022-08-05T07:50:02.390Z,30.65
2022-08-05T07:51:02.383Z,30.31
2022-08-05T07:52:02.452Z,30.10
2022-08-05T07:53:02.337Z,29.78
2022-08-05T07:54:02.328Z,29.53
2022-08-05T07:55:02.320Z,29.44
2022-08-05T07:56:06.294Z,29.38
2022-08-05T07:57:14.881Z,29.16
2022-08-05T07:58:04.054Z,29.12
2022-08-05T07:59:02.273Z,28.98
2022-08-05T08:00:02.281Z,28.96
2022-08-05T08:01:06.189Z,29.05
2022-08-05T08:02:03.414Z,29.07
2022-08-05T08:03:15.109Z,29.12
2022-08-05T08:04:03.221Z,29.10
2022-08-05T08:05:02.212Z,29.02
2022-08-05T08:06:02.217Z,28.82
2022-08-05T08:07:05.475Z,28.67
2022-08-05T08:08:02.176Z,28.63
2022-08-05T08:09:02.168Z,28.41
2022-08-05T08:10:02.159Z,28.15
2022-08-05T08:11:02.180Z,28.22
2022-08-05T08:12:10.652Z,28.17
2022-08-05T08:13:03.227Z,28.08
2022-08-05T08:14:02.119Z,28.04
2022-08-05T08:15:03.416Z,27.98
2022-08-05T08:16:53.678Z,28.00
2022-08-05T08:17:53.240Z,27.92
2022-08-05T08:18:52.728Z,27.63
2022-08-05T08:20:22.898Z,27.64
2022-08-05T08:21:01.827Z,27.68
2022-08-05T08:21:53.695Z,27.67
2022-08-05T08:22:52.684Z,27.59
2022-08-05T08:24:01.846Z,27.80
2022-08-05T08:24:53.656Z,27.95
2022-08-05T08:26:00.578Z,28.25
2022-08-05T08:26:53.651Z,28.38
2022-08-05T08:27:52.625Z,28.29
2022-08-05T08:28:59.574Z,28.38
2022-08-05T08:30:05.880Z,28.49
2022-08-05T08:30:53.591Z,28.47
2022-08-05T08:31:52.618Z,28.64
2022-08-05T08:32:52.600Z,28.64
2022-08-05T08:33:53.136Z,28.56
2022-08-05T08:34:52.550Z,28.45
2022-08-05T08:36:00.291Z,28.47
2022-08-05T08:36:57.805Z,28.26
2022-08-05T08:37:54.395Z,27.82
2022-08-05T08:38:53.324Z,27.67
2022-08-05T08:39:52.590Z,27.71
2022-08-05T08:40:52.482Z,27.65
2022-08-05T08:41:59.934Z,27.67
2022-08-05T08:42:53.730Z,27.67
2022-08-05T08:45:18.683Z,27.73
2022-08-05T08:45:19.345Z,27.65
2022-08-05T08:45:53.424Z,27.68
2022-08-05T08:46:52.431Z,27.65
2022-08-05T08:48:12.316Z,27.64
2022-08-05T08:49:07.865Z,27.65
2022-08-05T08:50:14.208Z,27.51
2022-08-05T08:51:07.560Z,27.40
2022-08-05T08:52:03.596Z,27.39
2022-08-05T08:52:53.351Z,27.33
2022-08-05T08:53:52.340Z,27.39
2022-08-05T08:54:52.328Z,27.30
2022-08-05T08:56:03.626Z,27.39
2022-08-05T08:56:53.318Z,27.33
2022-08-05T08:57:58.414Z,27.26
2022-08-05T08:58:53.282Z,27.25
2022-08-05T08:59:52.272Z,27.08
2022-08-05T09:00:52.337Z,27.08
2022-08-05T09:01:57.308Z,27.08
2022-08-05T09:02:53.236Z,27.12
2022-08-05T09:03:55.630Z,27.11
2022-08-05T09:05:16.971Z,27.11
2022-08-05T09:06:08.158Z,26.99
2022-08-05T09:06:53.192Z,27.11
2022-08-05T09:07:58.114Z,27.11
2022-08-05T09:08:53.213Z,27.05
2022-08-05T09:09:52.159Z,27.07
2022-08-05T09:10:52.149Z,27.07
2022-08-05T09:11:55.324Z,27.11
2022-08-05T09:12:53.275Z,27.14
2022-08-05T09:14:09.997Z,27.14
2022-08-05T09:14:58.424Z,27.22
2022-08-05T09:15:53.093Z,27.26
2022-08-05T09:16:52.083Z,27.33
2022-08-05T09:17:53.112Z,27.42
2022-08-05T09:18:52.077Z,27.42
2022-08-05T09:20:01.473Z,27.51
2022-08-05T09:20:53.043Z,27.64
2022-08-05T09:22:22.687Z,27.60
2022-08-05T09:22:53.017Z,27.60
2022-08-05T09:23:53.019Z,27.74
2022-08-05T09:24:52.004Z,27.64
2022-08-05T09:26:03.685Z,27.73
2022-08-05T09:26:52.972Z,27.67
2022-08-05T09:28:04.125Z,27.89
2022-08-05T09:28:52.951Z,27.96
2022-08-05T09:29:51.960Z,28.08
2022-08-05T09:30:51.932Z,28.22
2022-08-05T09:32:41.209Z,28.22
2022-08-05T09:32:53.639Z,28.17
2022-08-05T09:33:51.894Z,28.14
2022-08-05T09:34:51.883Z,28.25
2022-08-05T09:35:51.871Z,28.32
2022-08-05T09:36:56.401Z,28.33
2022-08-05T09:38:12.937Z,28.51
2022-08-05T09:38:52.844Z,28.48
2022-08-05T09:39:52.306Z,28.44
2022-08-05T09:40:54.002Z,28.32
2022-08-05T09:41:56.162Z,28.27
2022-08-05T09:42:51.952Z,28.20
2022-08-05T09:43:51.784Z,28.17
2022-08-05T09:44:51.774Z,28.19
2022-08-05T09:46:07.704Z,28.17
2022-08-05T09:46:53.683Z,28.19
2022-08-05T09:47:56.295Z,28.20
2022-08-05T09:49:06.541Z,28.05
2022-08-05T09:50:01.271Z,27.93
2022-08-05T09:50:52.727Z,27.64
2022-08-05T09:51:51.696Z,27.64
2022-08-05T09:52:52.950Z,27.64
2022-08-05T09:53:53.904Z,27.45
2022-08-05T09:54:51.683Z,27.49
2022-08-05T09:55:57.696Z,27.60
2022-08-05T09:56:52.651Z,27.45
2022-08-05T09:57:54.615Z,27.36
2022-08-05T09:58:52.622Z,27.15
2022-08-05T09:59:51.635Z,27.10
2022-08-05T10:00:51.611Z,27.10
2022-08-05T10:01:58.040Z,27.17
2022-08-05T10:02:53.598Z,27.12
2022-08-05T10:03:59.659Z,27.05
2022-08-05T10:04:52.557Z,27.10
2022-08-05T10:05:51.551Z,27.11
2022-08-05T10:06:59.036Z,27.15
2022-08-05T10:08:36.706Z,27.08
2022-08-05T10:08:55.310Z,26.97
2022-08-05T10:10:14.662Z,26.97
2022-08-05T10:10:54.198Z,27.08
2022-08-05T10:11:51.482Z,27.15
2022-08-05T10:12:51.615Z,27.12
2022-08-05T10:13:54.650Z,27.08
2022-08-05T10:14:54.371Z,27.02
2022-08-05T10:15:51.444Z,26.93
2022-08-05T10:16:53.015Z,26.96
2022-08-05T10:17:54.563Z,26.93
2022-08-05T10:18:52.398Z,26.81
2022-08-05T10:20:04.135Z,26.93
2022-08-05T10:20:53.010Z,26.85
2022-08-05T10:21:51.469Z,26.83
2022-08-05T10:22:51.629Z,26.70
2022-08-05T10:23:59.870Z,26.60
2022-08-05T10:24:52.334Z,26.68
2022-08-05T10:25:51.321Z,26.68
2022-08-05T10:26:52.798Z,26.71
2022-08-05T10:28:09.341Z,27.05
2022-08-05T10:28:52.326Z,27.58
2022-08-05T10:30:41.494Z,28.14
2022-08-05T10:32:54.070Z,29.24
2022-08-05T10:33:01.080Z,29.88
2022-08-05T10:33:01.409Z,29.84
2022-08-05T10:33:54.329Z,29.66
2022-08-05T10:34:51.223Z,29.60
2022-08-05T10:35:52.662Z,29.56
2022-08-05T10:36:52.201Z,29.49
2022-08-05T10:37:51.203Z,29.45
2022-08-05T10:38:51.196Z,29.24
2022-08-05T10:39:59.047Z,29.16
2022-08-05T10:40:52.255Z,28.96
2022-08-05T10:41:52.146Z,28.82
2022-08-05T10:42:51.140Z,28.63
2022-08-05T10:43:51.135Z,28.54
2022-08-05T10:44:51.211Z,28.45
2022-08-05T10:45:51.101Z,28.32
2022-08-05T10:46:54.335Z,28.27
2022-08-05T10:48:29.174Z,28.12
2022-08-05T10:48:57.849Z,28.14
2022-08-05T10:50:32.695Z,28.02
2022-08-05T10:50:52.085Z,28.00
2022-08-05T10:51:57.577Z,28.01
2022-08-05T10:52:52.081Z,27.96
2022-08-05T10:53:52.048Z,27.93
2022-08-05T10:54:56.489Z,28.00
2022-08-05T10:56:05.354Z,28.00
2022-08-05T10:56:52.849Z,27.95
2022-08-05T10:57:51.218Z,27.93
2022-08-05T10:58:50.959Z,27.98
2022-08-05T11:00:03.195Z,27.96
2022-08-05T11:00:55.324Z,27.82
2022-08-05T11:01:54.913Z,27.77
2022-08-05T11:02:51.952Z,27.89
2022-08-05T11:03:50.956Z,27.93
2022-08-05T11:04:50.910Z,27.90
2022-08-05T11:05:50.882Z,27.92
2022-08-05T11:06:50.871Z,27.98
2022-08-05T11:08:01.710Z,28.00
2022-08-05T11:08:51.848Z,28.01
2022-08-05T11:09:50.853Z,27.87
2022-08-05T11:11:00.988Z,27.85
2022-08-05T11:11:53.307Z,27.89
2022-08-05T11:12:55.164Z,27.74
2022-08-05T11:13:57.868Z,27.89
2022-08-05T11:15:11.750Z,27.89
2022-08-05T11:16:00.937Z,27.75
2022-08-05T11:16:57.762Z,27.78
2022-08-05T11:17:59.624Z,27.98
2022-08-05T11:18:51.799Z,28.74
2022-08-05T11:20:16.760Z,29.47
2022-08-05T11:20:51.717Z,30.24
2022-08-05T11:21:50.706Z,30.99
2022-08-05T11:22:53.995Z,31.87
2022-08-05T11:24:04.386Z,32.93
2022-08-05T11:25:16.389Z,34.61
2022-08-05T11:26:04.180Z,35.22
2022-08-05T11:26:51.653Z,36.05
2022-08-05T11:27:51.975Z,36.83
2022-08-05T11:28:51.643Z,37.44
2022-08-05T11:29:50.625Z,38.15
2022-08-05T11:30:53.349Z,38.30
2022-08-05T11:31:57.571Z,37.99
2022-08-05T11:32:51.597Z,38.17
2022-08-05T11:33:50.595Z,38.71
2022-08-05T11:34:51.826Z,39.06
2022-08-05T11:36:04.523Z,39.51
2022-08-05T11:36:52.794Z,39.87
2022-08-05T11:38:26.664Z,40.11
2022-08-05T11:38:52.043Z,39.94
2022-08-05T11:39:55.380Z,38.86
2022-08-05T11:40:51.512Z,37.96
2022-08-05T11:42:01.767Z,37.58
2022-08-05T11:42:51.493Z,37.07
2022-08-05T11:44:04.530Z,36.64
2022-08-05T11:44:54.183Z,36.27
2022-08-05T11:46:27.532Z,35.86
2022-08-05T11:47:10.181Z,35.61
2022-08-05T11:47:54.715Z,35.68
2022-08-05T11:48:50.578Z,35.71
2022-08-05T11:49:51.098Z,36.21
2022-08-05T11:50:50.415Z,36.80
2022-08-05T11:51:50.405Z,37.17
2022-08-05T11:52:54.393Z,37.59
2022-08-05T11:53:51.402Z,37.92
2022-08-05T11:54:54.731Z,38.30
2022-08-05T11:55:51.368Z,38.50
2022-08-05T11:56:52.217Z,38.48
2022-08-05T11:58:09.240Z,38.39
2022-08-05T11:58:51.506Z,38.34
2022-08-05T11:59:50.786Z,38.34
2022-08-05T12:00:52.779Z,38.30
2022-08-05T12:01:50.308Z,38.42
2022-08-05T12:02:50.333Z,38.34
2022-08-05T12:03:56.034Z,37.92
2022-08-05T12:04:59.169Z,37.53
2022-08-05T12:05:51.274Z,37.28
2022-08-05T12:06:50.266Z,37.60
2022-08-05T12:08:09.628Z,37.93
2022-08-05T12:08:51.573Z,37.86
2022-08-05T12:09:53.344Z,37.56
2022-08-05T12:10:50.227Z,37.42
2022-08-05T12:11:50.218Z,37.11
2022-08-05T12:12:59.357Z,36.84
2022-08-05T12:13:51.341Z,36.64
2022-08-05T12:14:50.201Z,36.52
2022-08-05T12:15:50.451Z,36.58
2022-08-05T12:16:51.168Z,36.77
2022-08-05T12:18:03.891Z,36.67
2022-08-05T12:18:53.349Z,36.54
2022-08-05T12:20:17.008Z,36.51
2022-08-05T12:20:51.129Z,36.49
2022-08-05T12:21:50.121Z,36.36
2022-08-05T12:22:51.888Z,36.42
2022-08-05T12:23:50.104Z,36.51
2022-08-05T12:24:50.505Z,36.68
2022-08-05T12:25:50.098Z,36.83
2022-08-05T12:26:50.102Z,36.86
2022-08-05T12:27:53.444Z,36.68
2022-08-05T12:28:50.063Z,36.70
2022-08-05T12:29:53.934Z,36.91
2022-08-05T12:30:51.075Z,36.96
2022-08-05T12:31:53.679Z,36.93
2022-08-05T12:32:50.536Z,36.74
2022-08-05T12:33:50.091Z,36.83
2022-08-05T12:34:49.999Z,36.84
2022-08-05T12:35:50.079Z,36.79
2022-08-05T12:36:49.980Z,36.64
2022-08-05T12:37:49.976Z,36.68
2022-08-05T12:38:49.990Z,36.59
2022-08-05T12:39:51.297Z,36.55
2022-08-05T12:40:49.941Z,36.59
2022-08-05T12:41:50.556Z,36.40
2022-08-05T12:42:50.920Z,36.39
2022-08-05T12:43:49.917Z,36.46
2022-08-05T12:44:49.920Z,36.43
2022-08-05T12:45:50.222Z,36.35
2022-08-05T12:46:50.905Z,35.68
2022-08-05T12:48:17.650Z,34.64
2022-08-05T12:48:50.870Z,34.55
2022-08-05T12:50:03.227Z,34.74
2022-08-05T12:50:50.846Z,35.02
2022-08-05T12:52:13.788Z,35.08
2022-08-05T12:52:50.831Z,34.85
2022-08-05T12:53:55.675Z,34.90